Time;durP1;ratioP1;P1;durP2;ratioP2;P2;SDS_P1;SDS_P2;PMS_P1;PMS_P2;Temp;Humidity;BMP_temperature;BMP_pressure;BME280_temperature;BME280_humidity;BME280_pressure;Samples;Min_cycle;Max_cycle;Signal;HPM_P1;HPM_P2
2023/10/30 00:02:14;;;;;;;2.17;1.97;;;;;;;17.92;61.19;97736.75;6971224;28;20207;-80
2023/10/30 00:05:36;;;;;;;2.27;2.10;;;;;;;17.41;60.93;97654.28;6955943;28;20653;-79
2023/10/30 00:08:57;;;;;;;2.60;2.43;;;;;;;17.80;61.82;97747.94;6972625;28;20647;-79
2023/10/30 00:12:19;;;;;;;2.00;1.90;;;;;;;18.07;61.22;97744.88;6972310;28;20307;-79
2023/10/30 00:15:40;;;;;;;4.30;2.90;;;;;;;17.90;60.70;97687.94;6972270;28;20346;-80
2023/10/30 00:19:04;;;;;;;5.00;2.67;;;;;;;17.84;61.19;97738.13;6968007;28;20296;-79
2023/10/30 00:22:26;;;;;;;8.47;7.40;;;;;;;17.88;61.07;97746.56;6950048;28;20319;-80
2023/10/30 00:25:47;;;;;;;1.90;1.80;;;;;;;16.97;60.54;97645.06;6972016;28;20681;-79
2023/10/30 00:29:09;;;;;;;3.23;2.73;;;;;;;16.81;63.77;97724.28;6971483;28;20236;-79
2023/10/30 00:32:31;;;;;;;5.67;2.60;;;;;;;16.88;64.64;97743.91;6970435;28;20247;-81
2023/10/30 00:35:54;;;;;;;3.60;2.40;;;;;;;17.49;63.32;97738.19;6971887;28;20212;-80
2023/10/30 00:39:16;;;;;;;4.07;2.83;;;;;;;17.73;62.06;97720.16;6971791;28;20309;-80
2023/10/30 00:42:37;;;;;;;3.20;2.80;;;;;;;17.89;61.74;97756.38;6971797;28;20215;-79
2023/10/30 00:45:59;;;;;;;2.80;2.60;;;;;;;17.72;62.20;97751.25;6971507;28;20622;-79
2023/10/30 00:49:20;;;;;;;2.97;2.60;;;;;;;17.76;61.99;97767.88;6970767;28;20313;-80
2023/10/30 00:52:43;;;;;;;7.60;6.90;;;;;;;17.63;61.67;97765.72;6969396;28;20332;-80
2023/10/30 00:56:05;;;;;;;5.90;4.37;;;;;;;17.79;61.38;97745.50;6971160;28;20299;-80
2023/10/30 00:59:27;;;;;;;6.07;3.10;;;;;;;18.03;60.71;97782.78;6971174;28;20224;-80
2023/10/30 01:02:48;;;;;;;2.60;2.30;;;;;;;17.94;61.10;97789.09;6970602;28;20200;-80
2023/10/30 01:06:10;;;;;;;4.17;3.03;;;;;;;17.87;61.35;97777.66;6971014;28;20200;-80
2023/10/30 01:09:33;;;;;;;5.40;2.77;;;;;;;17.91;60.78;97789.63;6962332;28;20323;-79
2023/10/30 01:12:54;;;;;;;2.60;2.40;;;;;;;17.48;60.59;97686.69;6970566;28;20299;-80
2023/10/30 01:16:16;;;;;;;3.93;2.07;;;;;;;17.15;61.90;97739.03;6970504;28;20298;-79
2023/10/30 01:19:37;;;;;;;2.00;1.90;;;;;;;16.70;64.17;97725.38;6970560;28;20220;-79
2023/10/30 01:22:59;;;;;;;2.23;1.80;;;;;;;16.92;64.13;97789.34;6969665;28;20249;-80
2023/10/30 01:26:21;;;;;;;1.87;1.70;;;;;;;17.37;63.82;97785.84;6961592;28;20375;-79
2023/10/30 01:29:43;;;;;;;2.87;1.87;;;;;;;17.40;63.61;97775.25;6970305;28;20232;-79
2023/10/30 01:33:05;;;;;;;1.80;1.70;;;;;;;17.93;62.09;97780.09;6970038;28;20285;-81
2023/10/30 01:36:26;;;;;;;3.93;1.70;;;;;;;17.91;61.38;97779.56;6970635;28;20625;-79
2023/10/30 01:39:48;;;;;;;1.90;1.80;;;;;;;17.05;63.79;97782.59;6970152;28;20315;-79
2023/10/30 01:43:11;;;;;;;1.50;1.40;;;;;;;17.12;64.01;97770.34;6968163;28;20211;-79
2023/10/30 01:46:32;;;;;;;1.40;1.37;;;;;;;17.32;63.87;97783.94;6965501;28;20564;-79
2023/10/30 01:49:54;;;;;;;4.03;2.07;;;;;;;17.78;62.13;97782.03;6968722;28;20370;-79
2023/10/30 01:53:17;;;;;;;1.77;1.67;;;;;;;17.29;61.13;97650.19;6963672;28;20201;-80
2023/10/30 01:56:39;;;;;;;2.57;1.93;;;;;;;17.58;61.48;97724.84;6969755;28;20685;-79
2023/10/30 02:00:03;;;;;;;3.67;1.87;;;;;;;17.14;62.92;97738.19;6950870;28;20204;-79
2023/10/30 02:03:25;;;;;;;2.50;2.30;;;;;;;17.86;62.36;97786.94;6958428;28;20208;-79
2023/10/30 02:06:46;;;;;;;4.30;1.60;;;;;;;17.97;62.13;97796.72;6948442;28;20209;-79
2023/10/30 02:10:08;;;;;;;1.90;1.80;;;;;;;17.89;61.92;97789.09;6955374;28;20315;-80
2023/10/30 02:13:30;;;;;;;3.83;1.70;;;;;;;17.93;61.35;97769.19;6969097;28;20285;-80
2023/10/30 02:16:53;;;;;;;2.27;1.60;;;;;;;17.69;61.76;97781.78;6969398;28;20270;-80
2023/10/30 02:20:14;;;;;;;3.20;2.10;;;;;;;17.87;61.60;97778.47;6969731;28;20687;-79
2023/10/30 02:23:36;;;;;;;4.90;1.83;;;;;;;18.05;61.07;97772.41;6969023;28;20302;-80
2023/10/30 02:26:59;;;;;;;3.00;2.07;;;;;;;17.20;63.13;97768.97;6958294;28;20361;-80
2023/10/30 02:30:21;;;;;;;1.70;1.60;;;;;;;17.69;62.56;97756.44;6970091;28;20257;-79
2023/10/30 02:33:42;;;;;;;1.80;1.70;;;;;;;17.98;61.14;97771.09;6969195;28;20204;-81
2023/10/30 02:37:04;;;;;;;5.03;1.80;;;;;;;17.53;61.68;97739.28;6970089;28;20389;-79
2023/10/30 02:40:25;;;;;;;2.30;2.10;;;;;;;17.56;62.20;97774.16;6967434;28;20299;-79
2023/10/30 02:43:48;;;;;;;1.93;1.63;;;;;;;17.56;62.06;97776.88;6968878;28;20737;-79
2023/10/30 02:47:10;;;;;;;1.87;1.60;;;;;;;17.78;61.00;97769.22;6968870;28;20232;-79
2023/10/30 02:50:31;;;;;;;1.63;1.53;;;;;;;17.65;60.76;97747.16;6969165;28;20821;-81
2023/10/30 02:53:53;;;;;;;2.77;1.47;;;;;;;17.70;60.91;97766.25;6961268;28;20208;-80
2023/10/30 02:57:14;;;;;;;1.70;1.60;;;;;;;17.34;61.53;97768.13;6967255;28;20361;-79
2023/10/30 03:00:37;;;;;;;1.70;1.60;;;;;;;17.63;61.50;97738.47;6972058;28;20292;-79
2023/10/30 03:03:59;;;;;;;1.63;1.50;;;;;;;17.85;60.10;97741.66;6973083;28;20250;-79
2023/10/30 03:07:20;;;;;;;4.57;1.50;;;;;;;17.47;61.42;97737.66;6946420;28;20236;-79
2023/10/30 03:10:41;;;;;;;3.20;1.80;;;;;;;17.32;62.24;97748.53;6959532;28;20261;-79
2023/10/30 03:14:04;;;;;;;3.47;1.50;;;;;;;17.20;62.49;97753.44;6954565;28;20334;-81
2023/10/30 03:17:26;;;;;;;5.60;1.80;;;;;;;17.28;62.54;97757.53;6945820;28;20220;-80
2023/10/30 03:20:48;;;;;;;2.50;1.60;;;;;;;17.06;63.11;97736.03;6946090;28;20749;-79
2023/10/30 03:24:10;;;;;;;1.90;1.80;;;;;;;16.79;63.54;97746.34;6969198;28;20364;-81
2023/10/30 03:27:31;;;;;;;2.23;1.80;;;;;;;16.79;64.25;97731.88;6966002;28;20230;-80
2023/10/30 03:30:53;;;;;;;1.63;1.53;;;;;;;16.92;63.10;97745.78;6971718;28;20225;-79
2023/10/30 03:34:18;;;;;;;4.03;1.83;;;;;;;17.25;63.01;97741.72;6971043;28;20684;-79
2023/10/30 03:37:40;;;;;;;3.17;1.73;;;;;;;17.30;62.49;97739.81;6973312;28;20215;-80
2023/10/30 03:41:01;;;;;;;3.03;1.60;;;;;;;17.19;62.24;97700.06;6973031;28;20337;-79
2023/10/30 03:44:26;;;;;;;1.80;1.70;;;;;;;17.66;61.50;97735.16;6973172;28;20345;-80
2023/10/30 03:47:47;;;;;;;2.03;1.83;;;;;;;17.80;60.87;97738.97;6972615;28;20231;-79
2023/10/30 03:51:10;;;;;;;2.03;1.93;;;;;;;17.78;60.49;97724.78;6973275;28;20291;-79
2023/10/30 03:54:32;;;;;;;4.00;1.93;;;;;;;17.21;62.39;97741.44;6972589;28;20289;-80
2023/10/30 03:57:53;;;;;;;2.00;1.90;;;;;;;17.13;63.17;97725.66;6973880;28;20369;-79
2023/10/30 04:01:15;;;;;;;1.70;1.60;;;;;;;17.56;61.76;97725.09;6973136;28;20232;-81
2023/10/30 04:04:36;;;;;;;1.77;1.57;;;;;;;17.70;60.97;97707.06;6971982;28;20365;-81
2023/10/30 04:07:59;;;;;;;2.70;1.70;;;;;;;17.26;62.20;97694.31;6973105;28;20260;-79
2023/10/30 04:11:20;;;;;;;1.60;1.50;;;;;;;17.57;61.56;97695.94;6972517;28;20237;-79
2023/10/30 04:14:42;;;;;;;1.77;1.50;;;;;;;17.65;61.00;97673.56;6972933;28;20294;-79
2023/10/30 04:18:04;;;;;;;1.70;1.60;;;;;;;17.42;60.73;97682.34;6973290;28;20370;-79
2023/10/30 04:21:25;;;;;;;1.93;1.70;;;;;;;17.42;61.42;97698.69;6971660;28;20575;-80
2023/10/30 04:24:48;;;;;;;2.30;1.70;;;;;;;17.58;60.11;97695.66;6972172;28;20700;-80
2023/10/30 04:28:10;;;;;;;1.77;1.67;;;;;;;17.18;60.83;97700.31;6972883;28;20694;-79
2023/10/30 04:31:31;;;;;;;4.60;1.60;;;;;;;16.87;62.10;97680.44;6972730;28;20301;-79
2023/10/30 04:34:53;;;;;;;1.53;1.43;;;;;;;16.47;63.34;97687.75;6972105;28;20363;-80
2023/10/30 04:38:14;;;;;;;2.70;1.60;;;;;;;16.89;62.17;97694.63;6971231;28;20226;-79
2023/10/30 04:41:37;;;;;;;3.07;2.60;;;;;;;16.78;61.91;97681.25;6973211;28;20690;-79
2023/10/30 04:44:59;;;;;;;2.00;1.60;;;;;;;16.88;62.55;97681.28;6972198;28;20291;-79
2023/10/30 04:48:20;;;;;;;3.17;2.30;;;;;;;17.17;61.45;97674.19;6972322;28;20235;-79
2023/10/30 04:51:42;;;;;;;2.03;1.60;;;;;;;16.55;62.66;97666.28;6972543;28;20338;-79
2023/10/30 04:55:04;;;;;;;2.20;2.00;;;;;;;16.57;62.70;97646.97;6970665;28;20211;-80
2023/10/30 04:58:27;;;;;;;4.37;2.00;;;;;;;16.86;62.06;97670.66;6972292;28;20705;-81
2023/10/30 05:01:48;;;;;;;2.30;1.77;;;;;;;16.65;62.28;97679.91;6968693;28;20257;-80
2023/10/30 05:05:10;;;;;;;2.30;2.00;;;;;;;16.73;61.77;97673.91;6970920;28;20741;-80
2023/10/30 05:08:31;;;;;;;1.97;1.80;;;;;;;16.32;62.41;97687.69;6971173;28;20373;-79
2023/10/30 05:11:54;;;;;;;4.27;2.00;;;;;;;16.26;63.20;97695.03;6971251;28;20208;-80
2023/10/30 05:15:17;;;;;;;5.23;2.10;;;;;;;15.54;65.08;97686.03;6970349;28;20675;-80
2023/10/30 05:18:39;;;;;;;2.07;1.97;;;;;;;16.02;64.24;97676.72;6968784;28;20226;-79
2023/10/30 05:22:00;;;;;;;2.87;2.20;;;;;;;15.86;62.61;97585.34;6971035;28;20207;-80
2023/10/30 05:25:22;;;;;;;2.40;2.20;;;;;;;16.64;62.09;97704.66;6973662;28;20614;-81
2023/10/30 05:28:44;;;;;;;2.60;1.93;;;;;;;16.36;62.30;97675.19;6955108;28;20234;-81
2023/10/30 05:32:07;;;;;;;4.50;2.17;;;;;;;16.51;62.14;97670.63;6959950;28;20692;-80
2023/10/30 05:35:29;;;;;;;3.37;1.97;;;;;;;15.81;61.49;97544.56;6965987;28;20295;-80
2023/10/30 05:38:50;;;;;;;5.37;2.00;;;;;;;16.52;61.23;97647.75;6952196;28;20218;-81
2023/10/30 05:42:12;;;;;;;3.97;2.50;;;;;;;16.13;61.69;97640.31;6972397;28;20212;-80
2023/10/30 05:45:33;;;;;;;2.57;2.00;;;;;;;16.16;62.02;97659.63;6968699;28;20341;-80
2023/10/30 05:48:56;;;;;;;6.07;2.20;;;;;;;15.87;62.91;97663.91;6972522;28;20309;-81
2023/10/30 05:52:17;;;;;;;7.47;2.57;;;;;;;15.39;63.45;97656.06;6971481;28;20241;-81
2023/10/30 05:55:39;;;;;;;4.67;2.60;;;;;;;15.56;63.51;97675.72;6972015;28;20636;-81
2023/10/30 05:59:00;;;;;;;5.03;3.00;;;;;;;15.69;63.18;97669.78;6975444;28;20229;-83
2023/10/30 06:02:22;;;;;;;3.93;3.27;;;;;;;15.82;62.49;97669.31;6974198;28;20701;-81
2023/10/30 06:05:45;;;;;;;8.43;2.90;;;;;;;15.90;62.04;97662.53;6971687;28;20207;-82
2023/10/30 06:09:07;;;;;;;3.47;2.60;;;;;;;15.85;62.44;97655.19;6970061;28;20225;-80
2023/10/30 06:12:29;;;;;;;4.57;3.33;;;;;;;15.45;62.76;97652.28;6944123;28;20293;-82
2023/10/30 06:15:50;;;;;;;4.83;2.60;;;;;;;15.28;63.39;97638.03;6944036;28;20241;-80
2023/10/30 06:19:12;;;;;;;3.00;2.80;;;;;;;15.52;62.92;97638.47;6944433;28;20362;-81
2023/10/30 06:22:35;;;;;;;2.57;2.37;;;;;;;15.60;62.67;97644.22;6952811;28;20271;-81
2023/10/30 06:25:57;;;;;;;2.60;2.30;;;;;;;15.81;62.15;97634.25;6956773;28;20646;-81
2023/10/30 06:29:19;;;;;;;3.50;2.20;;;;;;;15.87;62.53;97649.50;6962143;28;20307;-81
2023/10/30 06:32:40;;;;;;;3.87;2.10;;;;;;;16.24;61.34;97648.25;6970066;28;20205;-82
2023/10/30 06:36:02;;;;;;;1.97;1.87;;;;;;;16.32;60.81;97653.16;6974188;28;20290;-82
2023/10/30 06:39:25;;;;;;;2.63;1.70;;;;;;;16.43;60.25;97629.53;6974572;28;20860;-83
2023/10/30 06:42:46;;;;;;;3.60;2.10;;;;;;;16.32;60.08;97630.56;6975207;28;20687;-83
2023/10/30 06:46:09;;;;;;;1.90;1.80;;;;;;;15.90;61.44;97565.53;6975917;28;20340;-83
2023/10/30 06:49:31;;;;;;;2.30;2.10;;;;;;;16.12;62.04;97633.25;6977474;28;20253;-82
2023/10/30 06:52:52;;;;;;;1.90;1.80;;;;;;;16.38;61.61;97651.25;6972620;28;20230;-83
2023/10/30 06:56:15;;;;;;;1.90;1.80;;;;;;;16.59;60.63;97636.63;6973157;28;20228;-81
2023/10/30 06:59:37;;;;;;;2.20;2.00;;;;;;;16.26;61.91;97626.22;6978793;28;20234;-81
2023/10/30 07:02:58;;;;;;;2.43;2.10;;;;;;;16.46;61.63;97626.28;6968609;28;20237;-84
2023/10/30 07:06:20;;;;;;;3.57;2.27;;;;;;;16.62;60.86;97636.06;6976132;28;20259;-82
2023/10/30 07:09:41;;;;;;;3.10;2.43;;;;;;;16.40;61.83;97630.09;6968639;28;20373;-82
2023/10/30 07:13:04;;;;;;;3.70;2.57;;;;;;;16.01;61.85;97559.03;6973751;28;20353;-83
2023/10/30 07:16:25;;;;;;;3.17;2.90;;;;;;;16.56;61.29;97637.16;6961732;28;20352;-82
2023/10/30 07:19:48;;;;;;;4.70;2.90;;;;;;;16.66;61.94;97646.16;6973477;28;20271;-82
2023/10/30 07:23:09;;;;;;;3.27;2.97;;;;;;;16.14;62.21;97620.19;6979162;28;20222;-82
2023/10/30 07:26:31;;;;;;;4.80;2.77;;;;;;;17.27;60.54;97653.19;6980107;28;20296;-83
2023/10/30 07:29:54;;;;;;;2.80;2.60;;;;;;;17.23;59.72;97621.34;6980236;28;20228;-81
2023/10/30 07:33:15;;;;;;;4.83;4.00;;;;;;;16.91;59.79;97588.16;6971101;28;20266;-84
2023/10/30 07:36:37;;;;;;;6.27;4.10;;;;;;;17.07;59.89;97623.28;6971300;28;20243;-82
2023/10/30 07:39:58;;;;;;;5.43;3.87;;;;;;;17.81;58.89;97648.69;6976330;28;20241;-81
2023/10/30 07:43:21;;;;;;;3.80;3.23;;;;;;;17.92;57.68;97623.00;6977751;28;20271;-83
2023/10/30 07:46:43;;;;;;;4.90;3.40;;;;;;;17.84;59.02;97650.03;6976126;28;20673;-81
2023/10/30 07:50:06;;;;;;;3.30;2.97;;;;;;;17.92;58.81;97642.09;6969889;28;20228;-81
2023/10/30 07:53:27;;;;;;;3.33;3.13;;;;;;;18.17;58.62;97641.97;6974414;28;20241;-80
2023/10/30 07:56:49;;;;;;;3.30;3.00;;;;;;;18.23;58.00;97632.66;6970787;28;20346;-80
2023/10/30 08:00:12;;;;;;;3.93;2.80;;;;;;;18.51;57.09;97634.69;6965330;28;20228;-81
2023/10/30 08:03:35;;;;;;;2.90;2.70;;;;;;;18.30;54.52;97504.09;6971683;28;20224;-82
2023/10/30 08:06:56;;;;;;;6.03;3.33;;;;;;;18.90;55.24;97621.84;6972625;28;20355;-81
2023/10/30 08:10:18;;;;;;;3.77;3.47;;;;;;;20.01;51.69;97627.75;6976642;28;20235;-81
2023/10/30 08:13:39;;;;;;;3.20;2.37;;;;;;;21.94;46.93;97613.81;6971931;28;20705;-81
2023/10/30 08:17:02;;;;;;;3.53;3.23;;;;;;;22.54;44.02;97578.72;6966986;28;20314;-81
2023/10/30 08:20:25;;;;;;;3.80;3.20;;;;;;;23.25;42.48;97611.59;6959535;28;20289;-82
2023/10/30 08:23:46;;;;;;;4.57;3.87;;;;;;;22.01;45.30;97600.47;6968645;28;20238;-81
2023/10/30 08:27:07;;;;;;;4.67;3.80;;;;;;;22.30;44.79;97578.16;6977584;28;20361;-81
2023/10/30 08:30:29;;;;;;;3.93;3.63;;;;;;;22.28;45.75;97603.19;6975066;28;20307;-81
2023/10/30 08:33:51;;;;;;;3.73;3.43;;;;;;;23.09;44.09;97589.13;6973156;28;20338;-82
2023/10/30 08:37:13;;;;;;;4.73;3.43;;;;;;;21.23;47.19;97549.66;6974602;28;20317;-81
2023/10/30 08:40:35;;;;;;;3.70;3.20;;;;;;;23.54;42.53;97574.16;6956005;28;20250;-81
2023/10/30 08:43:56;;;;;;;3.47;3.17;;;;;;;24.21;41.34;97581.03;6960810;28;20293;-82
2023/10/30 08:47:18;;;;;;;3.00;2.70;;;;;;;24.43;41.01;97577.34;6966913;28;20716;-83
2023/10/30 08:50:40;;;;;;;3.83;2.80;;;;;;;24.41;40.61;97574.06;6964440;28;20370;-83
2023/10/30 08:54:04;;;;;;;5.30;3.33;;;;;;;23.64;41.24;97554.63;6964809;28;20202;-82
2023/10/30 08:57:26;;;;;;;3.60;3.10;;;;;;;22.71;44.26;97574.16;6970350;28;20259;-83
2023/10/30 09:00:47;;;;;;;4.90;3.23;;;;;;;22.12;46.65;97557.16;6970537;28;20580;-83
2023/10/30 09:04:10;;;;;;;4.63;2.73;;;;;;;22.58;45.41;97560.47;6971540;28;20247;-82
2023/10/30 09:07:31;;;;;;;2.90;2.70;;;;;;;22.66;45.32;97560.53;6974772;28;20850;-82
2023/10/30 09:10:54;;;;;;;3.50;2.60;;;;;;;22.14;46.22;97568.63;6963290;28;20260;-82
2023/10/30 09:14:16;;;;;;;3.27;2.97;;;;;;;22.18;46.59;97566.91;6950165;28;20630;-84
2023/10/30 09:17:37;;;;;;;2.63;2.30;;;;;;;21.60;47.53;97558.50;6967861;28;20602;-83
2023/10/30 09:20:59;;;;;;;2.50;2.30;;;;;;;21.98;47.08;97554.44;6969931;28;20286;-83
2023/10/30 09:24:21;;;;;;;2.57;2.37;;;;;;;22.47;45.89;97539.84;6969646;28;20309;-83
2023/10/30 09:27:44;;;;;;;2.90;2.10;;;;;;;22.75;45.38;97542.19;6969356;28;20226;-83
2023/10/30 09:31:06;;;;;;;3.80;1.90;;;;;;;22.63;44.73;97532.88;6963725;28;20263;-83
2023/10/30 09:34:27;;;;;;;4.40;2.80;;;;;;;21.31;47.39;97552.50;6949227;28;20221;-84
2023/10/30 09:37:49;;;;;;;2.93;2.73;;;;;;;20.98;48.57;97547.41;6952761;28;20223;-83
2023/10/30 09:41:12;;;;;;;2.47;2.27;;;;;;;20.30;50.05;97546.34;6971169;28;20214;-86
2023/10/30 09:44:35;;;;;;;2.10;2.00;;;;;;;20.25;50.42;97535.47;6953876;28;20209;-85
2023/10/30 09:47:58;;;;;;;2.70;2.50;;;;;;;20.44;49.55;97532.69;6973493;28;20312;-85
2023/10/30 09:51:20;;;;;;;2.37;2.00;;;;;;;20.50;49.95;97532.31;6968173;28;20223;-87
2023/10/30 09:54:44;;;;;;;2.50;2.30;;;;;;;20.24;50.90;97539.34;6968686;28;20206;-87
2023/10/30 09:58:05;;;;;;;2.43;2.23;;;;;;;19.96;52.03;97525.75;6967154;28;20353;-86
2023/10/30 10:01:28;;;;;;;2.23;1.53;;;;;;;19.99;50.37;97495.88;6960428;28;20235;-86
2023/10/30 10:04:50;;;;;;;6.03;1.83;;;;;;;20.31;49.77;97506.91;6952988;28;20355;-86
2023/10/30 10:08:11;;;;;;;4.40;2.03;;;;;;;20.49;49.43;97497.84;6967680;28;20263;-85
2023/10/30 10:11:35;;;;;;;2.10;1.93;;;;;;;19.93;50.02;97447.81;6973999;28;20287;-86
2023/10/30 10:14:57;;;;;;;2.87;1.70;;;;;;;21.25;47.82;97484.41;6959183;28;20625;-85
2023/10/30 10:18:28;;;;;;;1.83;1.70;;;;;;;21.86;46.69;97495.72;6954627;28;20229;-85
2023/10/30 10:21:51;;;;;;;3.73;2.10;;;;;;;21.78;46.18;97499.19;6964510;28;20209;-85
2023/10/30 10:25:18;;;;;;;1.87;1.73;;;;;;;21.16;46.94;97491.69;6963767;28;20222;-86
2023/10/30 10:28:39;;;;;;;2.87;2.03;;;;;;;20.22;48.41;97502.41;6966870;28;21766;-85
2023/10/30 10:32:01;;;;;;;1.80;1.47;;;;;;;21.17;47.53;97484.28;6969618;28;20265;-85
2023/10/30 10:35:24;;;;;;;1.87;1.67;;;;;;;20.86;47.32;97477.75;6960904;28;20228;-85
2023/10/30 10:38:57;;;;;;;1.60;1.50;;;;;;;20.45;48.02;97463.97;6952098;28;20569;-85
2023/10/30 10:42:20;;;;;;;1.83;1.47;;;;;;;20.59;47.36;97453.03;6970140;28;20206;-85
2023/10/30 10:45:41;;;;;;;1.90;1.80;;;;;;;19.96;49.07;97458.19;6961470;28;20720;-86
2023/10/30 10:49:03;;;;;;;3.10;1.80;;;;;;;20.53;48.45;97448.78;6969312;28;20361;-85
2023/10/30 10:52:28;;;;;;;1.80;1.30;;;;;;;20.31;47.36;97353.63;6953494;28;20253;-85
2023/10/30 10:55:50;;;;;;;1.70;1.60;;;;;;;20.91;47.40;97439.31;6955440;28;20345;-86
2023/10/30 10:59:15;;;;;;;1.40;1.30;;;;;;;19.73;47.93;97313.31;6969408;28;20223;-86
2023/10/30 11:02:39;;;;;;;1.63;1.40;;;;;;;20.13;48.66;97420.19;6973899;28;20219;-83
2023/10/30 11:06:02;;;;;;;3.40;3.00;;;;;;;20.11;47.61;97345.75;6970320;28;20202;-88
2023/10/30 11:09:30;;;;;;;5.13;4.00;;;;;;;20.47;48.31;97396.03;6967209;28;20739;-85
2023/10/30 11:12:59;;;;;;;6.67;3.40;;;;;;;20.05;49.43;97423.56;6965970;28;20233;-84
2023/10/30 11:16:24;;;;;;;2.77;2.10;;;;;;;20.27;47.19;97322.50;6960414;28;20242;-85
2023/10/30 11:19:46;;;;;;;1.57;1.47;;;;;;;20.46;46.17;97308.72;6963663;28;20250;-85
2023/10/30 11:23:07;;;;;;;2.00;1.50;;;;;;;20.56;46.81;97418.84;6970205;28;20218;-84
2023/10/30 11:26:43;;;;;;;1.47;1.33;;;;;;;20.63;47.25;97396.56;6972484;28;20206;-85
2023/10/30 11:30:08;;;;;;;1.73;1.60;;;;;;;20.67;46.13;97378.38;6953929;28;20359;-84
2023/10/30 11:33:31;;;;;;;1.30;1.20;;;;;;;21.05;46.64;97391.59;6944672;28;20210;-85
2023/10/30 11:36:53;;;;;;;2.37;1.60;;;;;;;20.94;45.90;97342.81;6973240;28;20230;-84
2023/10/30 11:40:15;;;;;;;1.93;1.47;;;;;;;21.30;45.63;97372.69;6970194;28;20211;-84
2023/10/30 11:43:38;;;;;;;2.27;1.30;;;;;;;20.84;46.78;97357.50;6974740;28;20296;-80
2023/10/30 11:47:00;;;;;;;1.83;1.30;;;;;;;21.18;45.53;97361.44;6959355;28;20314;-82
2023/10/30 11:50:25;;;;;;;1.20;1.20;;;;;;;20.90;45.87;97350.81;6969789;28;20294;-83
2023/10/30 11:53:47;;;;;;;1.40;1.30;;;;;;;20.79;46.31;97332.94;6978166;28;20253;-84
2023/10/30 11:57:09;;;;;;;1.77;1.40;;;;;;;20.61;47.12;97333.03;6973967;28;20593;-87
2023/10/30 12:00:32;;;;;;;1.73;1.63;;;;;;;20.95;46.33;97336.19;6973328;28;20290;-86
2023/10/30 12:03:54;;;;;;;2.50;1.67;;;;;;;21.17;45.73;97315.13;6964454;28;20222;-83
2023/10/30 12:07:16;;;;;;;1.43;1.33;;;;;;;21.06;45.13;97249.91;6969340;28;20831;-87
2023/10/30 12:10:39;;;;;;;2.27;1.20;;;;;;;21.53;45.13;97303.03;6960280;28;20226;-84
2023/10/30 12:14:00;;;;;;;1.53;1.40;;;;;;;21.39;45.16;97222.78;6974095;28;20696;-86
2023/10/30 12:17:23;;;;;;;2.03;1.80;;;;;;;21.63;45.36;97277.28;6948273;28;20255;-86
2023/10/30 12:20:45;;;;;;;1.57;1.40;;;;;;;21.60;44.38;97248.56;6970909;28;20252;-86
2023/10/30 12:24:07;;;;;;;2.20;1.67;;;;;;;21.90;43.92;97255.22;6963429;28;20277;-84
2023/10/30 12:27:28;;;;;;;1.70;1.40;;;;;;;21.17;44.44;97138.94;6955012;28;20325;-84
2023/10/30 12:30:50;;;;;;;1.83;1.70;;;;;;;20.43;45.65;97134.94;6969477;28;20229;-85
2023/10/30 12:34:14;;;;;;;1.57;1.47;;;;;;;21.27;45.64;97163.34;6976151;28;20227;-84
2023/10/30 12:37:38;;;;;;;1.53;1.33;;;;;;;21.77;44.63;97240.47;6963236;28;20747;-84
2023/10/30 12:41:00;;;;;;;1.53;1.43;;;;;;;21.66;44.80;97236.31;6963341;28;20230;-84
2023/10/30 12:44:23;;;;;;;2.07;1.40;;;;;;;21.70;44.57;97234.63;6952508;28;20362;-84
2023/10/30 12:47:46;;;;;;;2.37;1.60;;;;;;;21.70;44.54;97239.28;6960789;28;20640;-85
2023/10/30 12:51:09;;;;;;;1.97;1.50;;;;;;;21.32;45.39;97249.00;6965519;28;20325;-85
2023/10/30 12:54:32;;;;;;;2.67;1.80;;;;;;;20.98;46.67;97240.50;6967549;28;20213;-84
2023/10/30 12:57:54;;;;;;;1.77;1.50;;;;;;;20.78;47.21;97236.25;6968960;28;20252;-85
2023/10/30 13:01:16;;;;;;;2.97;1.47;;;;;;;20.94;46.46;97192.09;6973303;28;20199;-84
2023/10/30 13:04:38;;;;;;;1.57;1.47;;;;;;;21.40;45.36;97207.94;6974768;28;20292;-85
2023/10/30 13:08:00;;;;;;;2.40;1.60;;;;;;;21.18;46.54;97224.38;6968251;28;20215;-84
2023/10/30 13:11:22;;;;;;;2.50;1.50;;;;;;;20.76;46.75;97171.13;6973167;28;20232;-84
2023/10/30 13:14:44;;;;;;;1.93;1.70;;;;;;;21.37;45.76;97197.59;6977513;28;20652;-85
2023/10/30 13:18:05;;;;;;;1.50;1.40;;;;;;;20.88;46.59;97194.16;6959613;28;20247;-84
2023/10/30 13:21:27;;;;;;;1.73;1.63;;;;;;;21.08;46.14;97183.50;6971090;28;20672;-84
2023/10/30 13:24:50;;;;;;;2.43;1.77;;;;;;;21.02;46.52;97194.09;6972590;28;20299;-83
2023/10/30 13:28:11;;;;;;;2.40;1.73;;;;;;;21.14;46.03;97165.81;6963628;28;20256;-86
2023/10/30 13:31:33;;;;;;;2.60;1.60;;;;;;;21.08;46.28;97143.53;6968838;28;20269;-85
2023/10/30 13:34:56;;;;;;;2.10;1.70;;;;;;;21.71;45.20;97162.16;6968381;28;20198;-86
2023/10/30 13:38:18;;;;;;;1.37;1.30;;;;;;;21.35;45.75;97147.75;6951515;28;20593;-86
2023/10/30 13:41:40;;;;;;;1.87;1.70;;;;;;;21.12;45.83;97163.72;6953228;28;20286;-85
2023/10/30 13:45:02;;;;;;;1.60;1.43;;;;;;;20.76;46.29;97139.06;6962458;28;20234;-85
2023/10/30 13:48:25;;;;;;;3.80;1.90;;;;;;;20.41;47.62;97130.88;6966669;28;20265;-85
2023/10/30 13:51:47;;;;;;;2.30;1.50;;;;;;;21.13;46.58;97128.56;6958676;28;20249;-84
2023/10/30 13:55:09;;;;;;;1.77;1.63;;;;;;;21.02;46.33;97140.13;6970066;28;20213;-83
2023/10/30 13:58:32;;;;;;;1.97;1.83;;;;;;;21.05;46.64;97120.28;6970580;28;20688;-85
2023/10/30 14:01:53;;;;;;;1.43;1.33;;;;;;;20.79;46.29;97116.53;6963397;28;20294;-86
2023/10/30 14:05:15;;;;;;;2.37;1.57;;;;;;;20.44;46.68;97100.13;6965434;28;20298;-87
2023/10/30 14:08:37;;;;;;;2.27;1.40;;;;;;;20.62;47.10;97089.03;6968486;28;20676;-88
2023/10/30 14:11:59;;;;;;;5.73;1.90;;;;;;;20.21;47.78;97049.19;6967663;28;20257;-88
2023/10/30 14:15:22;;;;;;;1.90;1.80;;;;;;;21.47;45.52;97065.72;6961028;28;20253;-88
2023/10/30 14:18:43;;;;;;;1.67;1.57;;;;;;;21.31;44.68;97011.63;6961091;28;20711;-87
2023/10/30 14:22:05;;;;;;;1.90;1.50;;;;;;;21.06;46.14;97047.13;6968784;28;20687;-88
2023/10/30 14:25:26;;;;;;;1.57;1.47;;;;;;;20.84;46.78;97031.50;6968742;28;20217;-88
2023/10/30 14:28:49;;;;;;;2.03;1.70;;;;;;;21.00;46.09;97015.50;6960677;28;20321;-88
2023/10/30 14:32:12;;;;;;;2.53;1.60;;;;;;;21.22;45.42;96999.00;6955864;28;20233;-88
2023/10/30 14:35:33;;;;;;;1.80;1.67;;;;;;;21.55;45.11;97015.56;6959062;28;20211;-88
2023/10/30 14:38:55;;;;;;;1.73;1.60;;;;;;;20.78;45.95;96945.91;6959288;28;20230;-88
2023/10/30 14:42:16;;;;;;;2.43;1.77;;;;;;;19.86;48.42;97000.75;6966715;28;20298;-88
2023/10/30 14:45:38;;;;;;;2.20;1.60;;;;;;;20.28;47.66;97001.13;6965484;28;20242;-87
2023/10/30 14:49:01;;;;;;;1.70;1.60;;;;;;;20.53;47.44;96989.59;6967446;28;20371;-88
2023/10/30 14:52:22;;;;;;;2.37;1.80;;;;;;;21.08;45.84;96996.38;6960511;28;20780;-88
2023/10/30 14:55:44;;;;;;;2.40;1.70;;;;;;;21.04;45.22;96978.94;6961689;28;20688;-87
2023/10/30 14:59:06;;;;;;;2.53;1.60;;;;;;;21.00;46.20;97001.81;6969755;28;20226;-88
2023/10/30 15:02:27;;;;;;;2.30;1.60;;;;;;;20.49;45.22;96850.88;6973117;28;20297;-88
2023/10/30 15:05:51;;;;;;;1.60;1.50;;;;;;;19.69;47.38;96870.13;6973854;28;20210;-88
2023/10/30 15:09:16;;;;;;;1.50;1.40;;;;;;;20.84;45.98;96988.47;6971969;28;20236;-87
2023/10/30 15:12:37;;;;;;;1.60;1.50;;;;;;;20.70;45.12;96931.38;6972361;28;20222;-88
2023/10/30 15:15:59;;;;;;;1.70;1.60;;;;;;;20.98;45.71;96993.91;6973335;28;20658;-88
2023/10/30 15:19:21;;;;;;;2.37;1.90;;;;;;;20.97;46.06;97016.13;6970844;28;20380;-88
2023/10/30 15:22:44;;;;;;;2.60;2.00;;;;;;;20.98;46.69;97035.00;6967963;28;20724;-89
2023/10/30 15:26:06;;;;;;;2.50;2.10;;;;;;;20.39;47.18;96953.25;6970649;28;20342;-87
2023/10/30 15:29:27;;;;;;;3.60;2.10;;;;;;;20.78;47.15;96983.47;6967119;28;20283;-88
2023/10/30 15:32:49;;;;;;;2.23;2.03;;;;;;;20.58;48.03;96961.28;6971210;28;20321;-88
2023/10/30 15:36:11;;;;;;;3.97;2.10;;;;;;;19.84;47.90;96910.81;6969513;28;20292;-88
2023/10/30 15:39:34;;;;;;;3.80;2.60;;;;;;;19.86;50.29;96990.63;6954981;28;20262;-86
2023/10/30 15:42:55;;;;;;;4.03;2.30;;;;;;;20.14;50.18;96994.09;6962450;28;20214;-88
2023/10/30 15:46:17;;;;;;;2.40;2.17;;;;;;;19.74;50.46;96959.47;6972913;28;20265;-88
2023/10/30 15:49:39;;;;;;;2.10;1.80;;;;;;;19.46;51.30;96914.97;6963557;28;20223;-88
2023/10/30 15:53:00;;;;;;;3.40;2.00;;;;;;;18.84;52.42;96846.63;6965753;28;20261;-88